Floyd Bennett Memorial Airport Glens Falls US
ICAO: KGFL
IATA: GFL
Category: Medium
Scheduled Services: No

Elevation: 328 ft
TransAlt. 18000 ft.

Airport Communications:
ALBANY APP/DEP:125
ASOS:119.25
BURLINGTON RDO:122.2
CTAF/UNICOM:123

KGFL Zoom In..

If you have problems with the map follow the link
https://www.worldairports.se/pages/airport.php?
ICAO=KGFL

Runways:

(A) RW 01 length 5000 ft width 150 ft
ILS 110.70 / hdg 12

(B) RW 12 length 3999 ft width 100 ft
---- / hdg 124

(C) RW 19 length 5000 ft width 150 ft
---- / hdg 192

(D) RW 30 length 3999 ft width 100 ft
---- / hdg 304

Location; KGFL
Day. 16 / Time. 03.24 Zulu
* Altimeter: 30.15
* Temperature: -04° c. -24.8°f.
* Wind from: 020° Speed 06 kn.
Dewpoint: -06° c.
Visibility: 3/4 Statute Miles.
Conditions: Light Snow.Conditions: Mist.

KGFL 160324Z AUTO 02006KT 3/4SM -SN BR VV013 M04/M06 A3015 RMK AO2 PRESFR P0002 T10441056


Wind From 020°
Speed 06 kn.

 
 
jpsmedia.com for Web Design worldairports.se 2018   terms of use